• pl
  • eng

Awiacja
Kliknij na pogrubioną czerwoną nazwę, aby odkodować depeszę. 09:31 18.11.2018
  • WIND
  • SIGNIFICANT EURO
  • SIGNIFICANT
  • SIGMET
  • AIRMET
  • TAF FC
  • TAF FT
  • METAR GG30
  • METAR GG00


METAR EPBY 180830Z 25004KT 3200 BR SCT010 OVC013 M01/M01 Q1030 =

METAR EPGD 180830Z 34008KT 8000 SCT004 BKN009 05/04 Q1029 =

METAR EPKK 180830Z 11003KT 080V140 9999 FEW060 M01/M05 Q1029 =

METAR EPKT 180830Z 01003KT 350V050 CAVOK M02/M06 Q1028 =

METAR EPLB 180830Z 29005KT 9000 NSC M02/M05 Q1028 =

METAR EPLL 180830Z 25003KT 5000 BR NSC M03/M05 Q1029 =

METAR EPMO 180830Z 24006KT 6000 NSC M01/M03 Q1028 =

METAR EPPO 180830Z 34003KT 3400 BR NSC M02/M02 Q1032 =

METAR EPRA 180830Z 30004KT 270V330 4500 BR NSC M02/M04 Q1029=

METAR EPRZ 180830Z VRB02KT 9999 SCT045 M02/M05 Q1028 =

METAR EPSC 180830Z 00000KT 7000 FEW017 OVC022 M00/M01 Q1032 =

METAR EPSY 180830Z NIL=

METAR EPWA 180830Z 27003KT 220V320 5000 BR NSC M03/M04 Q1029 NOSIG=

METAR EPWR 180830Z VRB02KT 5000 BR NSC M03/M05 Q1031 =

METAR EPZG 180830Z 36002KT 2000 BR NSC M03/M03 Q1032 =
 METAR EPLL
Lokalizacja:EPLL Łódź Lublinek
Czas:08:30 UTC
Średni kierunek wiatru:250 °
Średnia prędkość wiatru:3 węzłów
Widzialność:5000 metrów
Zjawisko:zamglenie
Zachmurzenie :brak chmur istotnych operacyjnie
Temperatura powietrza:-3 °C
Temperatura punktu rosy:-5 °C
Ciśnienie QNH:1029 hPa
Awiacja.imgw.pl jest pogodowym serwisem informacyjnym
Instytutu Meteorologii i Gospodarki Wodnej Państwowego Instytutu Badawczego.
Copyright IMGW PIB 2009-2011© Wszelkie prawa zastrzeżone.